sensor_id;sensor_type;location;lat;lon;timestamp;P1;durP1;ratioP1;P2;durP2;ratioP2
24147;SDS011;12309;51.450;-2.624;2022-11-15T00:00:32;18.20;;;2.50;;
24147;SDS011;12309;51.450;-2.624;2022-11-15T00:02:58;15.37;;;1.63;;
24147;SDS011;12309;51.450;-2.624;2022-11-15T00:05:24;10.40;;;1.47;;
24147;SDS011;12309;51.450;-2.624;2022-11-15T00:07:50;11.80;;;1.70;;
24147;SDS011;12309;51.450;-2.624;2022-11-15T00:10:15;13.20;;;1.80;;
24147;SDS011;12309;51.450;-2.624;2022-11-15T00:12:41;16.03;;;1.87;;
24147;SDS011;12309;51.450;-2.624;2022-11-15T00:15:07;12.80;;;1.47;;
24147;SDS011;12309;51.450;-2.624;2022-11-15T00:17:33;13.80;;;1.60;;
24147;SDS011;12309;51.450;-2.624;2022-11-15T00:19:58;18.10;;;1.70;;
24147;SDS011;12309;51.450;-2.624;2022-11-15T00:22:24;11.70;;;2.30;;
24147;SDS011;12309;51.450;-2.624;2022-11-15T00:24:49;12.73;;;2.23;;
24147;SDS011;12309;51.450;-2.624;2022-11-15T00:27:15;11.77;;;1.63;;
24147;SDS011;12309;51.450;-2.624;2022-11-15T00:29:41;11.97;;;1.83;;
24147;SDS011;12309;51.450;-2.624;2022-11-15T00:32:11;9.47;;;1.37;;
24147;SDS011;12309;51.450;-2.624;2022-11-15T00:34:36;7.03;;;1.13;;
24147;SDS011;12309;51.450;-2.624;2022-11-15T00:37:02;16.10;;;1.63;;
24147;SDS011;12309;51.450;-2.624;2022-11-15T00:39:28;16.47;;;1.40;;
24147;SDS011;12309;51.450;-2.624;2022-11-15T00:41:53;10.50;;;1.30;;
24147;SDS011;12309;51.450;-2.624;2022-11-15T00:44:19;9.03;;;1.13;;
24147;SDS011;12309;51.450;-2.624;2022-11-15T00:46:45;10.63;;;1.80;;
24147;SDS011;12309;51.450;-2.624;2022-11-15T00:49:11;14.97;;;1.60;;
24147;SDS011;12309;51.450;-2.624;2022-11-15T00:51:36;15.00;;;2.00;;
24147;SDS011;12309;51.450;-2.624;2022-11-15T00:54:02;10.07;;;1.60;;
24147;SDS011;12309;51.450;-2.624;2022-11-15T00:56:27;11.10;;;1.83;;
24147;SDS011;12309;51.450;-2.624;2022-11-15T00:58:53;14.30;;;1.93;;
24147;SDS011;12309;51.450;-2.624;2022-11-15T01:01:19;13.57;;;1.77;;
24147;SDS011;12309;51.450;-2.624;2022-11-15T01:03:44;17.23;;;1.87;;
24147;SDS011;12309;51.450;-2.624;2022-11-15T01:06:10;13.90;;;2.37;;
24147;SDS011;12309;51.450;-2.624;2022-11-15T01:08:37;15.27;;;1.93;;
24147;SDS011;12309;51.450;-2.624;2022-11-15T01:11:05;11.23;;;1.30;;
24147;SDS011;12309;51.450;-2.624;2022-11-15T01:13:36;14.13;;;2.07;;
24147;SDS011;12309;51.450;-2.624;2022-11-15T01:16:06;11.47;;;1.70;;
24147;SDS011;12309;51.450;-2.624;2022-11-15T01:18:33;15.27;;;2.00;;
24147;SDS011;12309;51.450;-2.624;2022-11-15T01:20:59;18.67;;;1.50;;
24147;SDS011;12309;51.450;-2.624;2022-11-15T01:23:24;18.13;;;2.10;;
24147;SDS011;12309;51.450;-2.624;2022-11-15T01:25:50;10.00;;;1.63;;
24147;SDS011;12309;51.450;-2.624;2022-11-15T01:28:16;14.73;;;1.73;;
24147;SDS011;12309;51.450;-2.624;2022-11-15T01:30:41;14.83;;;1.70;;
24147;SDS011;12309;51.450;-2.624;2022-11-15T01:33:07;9.87;;;1.20;;
24147;SDS011;12309;51.450;-2.624;2022-11-15T01:35:32;8.93;;;1.53;;
24147;SDS011;12309;51.450;-2.624;2022-11-15T01:37:58;10.90;;;1.73;;
24147;SDS011;12309;51.450;-2.624;2022-11-15T01:40:24;17.57;;;1.67;;
24147;SDS011;12309;51.450;-2.624;2022-11-15T01:42:49;10.67;;;1.43;;
24147;SDS011;12309;51.450;-2.624;2022-11-15T01:45:15;17.47;;;1.93;;
24147;SDS011;12309;51.450;-2.624;2022-11-15T01:47:42;13.97;;;2.00;;
24147;SDS011;12309;51.450;-2.624;2022-11-15T01:50:17;10.20;;;1.63;;
24147;SDS011;12309;51.450;-2.624;2022-11-15T01:52:46;13.43;;;2.10;;
24147;SDS011;12309;51.450;-2.624;2022-11-15T01:55:16;14.47;;;1.93;;
24147;SDS011;12309;51.450;-2.624;2022-11-15T01:57:46;27.03;;;2.30;;
24147;SDS011;12309;51.450;-2.624;2022-11-15T02:00:15;11.63;;;1.47;;
24147;SDS011;12309;51.450;-2.624;2022-11-15T02:02:41;15.67;;;1.67;;
24147;SDS011;12309;51.450;-2.624;2022-11-15T02:05:07;14.17;;;1.77;;
24147;SDS011;12309;51.450;-2.624;2022-11-15T02:07:34;14.73;;;2.00;;
24147;SDS011;12309;51.450;-2.624;2022-11-15T02:10:08;14.57;;;1.53;;
24147;SDS011;12309;51.450;-2.624;2022-11-15T02:12:35;10.83;;;1.60;;
24147;SDS011;12309;51.450;-2.624;2022-11-15T02:15:02;7.97;;;1.30;;
24147;SDS011;12309;51.450;-2.624;2022-11-15T02:22:38;13.33;;;1.83;;
24147;SDS011;12309;51.450;-2.624;2022-11-15T02:27:59;14.73;;;1.70;;
24147;SDS011;12309;51.450;-2.624;2022-11-15T02:30:45;19.03;;;2.00;;
24147;SDS011;12309;51.450;-2.624;2022-11-15T02:33:36;12.50;;;1.50;;
24147;SDS011;12309;51.450;-2.624;2022-11-15T02:36:34;8.13;;;1.00;;
24147;SDS011;12309;51.450;-2.624;2022-11-15T02:39:18;18.73;;;2.50;;
24147;SDS011;12309;51.450;-2.624;2022-11-15T02:42:11;7.97;;;1.10;;
24147;SDS011;12309;51.450;-2.624;2022-11-15T02:45:02;10.57;;;1.40;;
24147;SDS011;12309;51.450;-2.624;2022-11-15T02:47:32;9.63;;;1.17;;
24147;SDS011;12309;51.450;-2.624;2022-11-15T02:50:03;9.30;;;1.20;;
24147;SDS011;12309;51.450;-2.624;2022-11-15T02:52:35;6.57;;;1.30;;
24147;SDS011;12309;51.450;-2.624;2022-11-15T02:55:01;5.53;;;1.10;;
24147;SDS011;12309;51.450;-2.624;2022-11-15T03:00:11;4.53;;;0.77;;
24147;SDS011;12309;51.450;-2.624;2022-11-15T03:05:34;8.17;;;1.13;;
24147;SDS011;12309;51.450;-2.624;2022-11-15T03:08:08;12.50;;;1.13;;
24147;SDS011;12309;51.450;-2.624;2022-11-15T03:10:59;7.17;;;0.93;;
24147;SDS011;12309;51.450;-2.624;2022-11-15T03:13:37;5.40;;;1.30;;
24147;SDS011;12309;51.450;-2.624;2022-11-15T03:19:04;5.03;;;0.57;;
24147;SDS011;12309;51.450;-2.624;2022-11-15T03:21:48;2.90;;;0.57;;
24147;SDS011;12309;51.450;-2.624;2022-11-15T03:24:16;5.57;;;0.90;;
24147;SDS011;12309;51.450;-2.624;2022-11-15T03:26:45;4.63;;;0.87;;
24147;SDS011;12309;51.450;-2.624;2022-11-15T03:29:17;4.80;;;0.53;;
24147;SDS011;12309;51.450;-2.624;2022-11-15T03:31:48;3.97;;;0.50;;
24147;SDS011;12309;51.450;-2.624;2022-11-15T03:36:54;4.80;;;0.80;;
24147;SDS011;12309;51.450;-2.624;2022-11-15T03:39:20;3.50;;;0.50;;
24147;SDS011;12309;51.450;-2.624;2022-11-15T03:46:58;4.57;;;0.73;;
24147;SDS011;12309;51.450;-2.624;2022-11-15T03:49:27;2.40;;;0.43;;
24147;SDS011;12309;51.450;-2.624;2022-11-15T03:51:58;3.43;;;0.60;;
24147;SDS011;12309;51.450;-2.624;2022-11-15T03:54:24;2.50;;;0.60;;
24147;SDS011;12309;51.450;-2.624;2022-11-15T03:56:49;1.73;;;0.43;;
24147;SDS011;12309;51.450;-2.624;2022-11-15T03:59:15;4.83;;;0.87;;
24147;SDS011;12309;51.450;-2.624;2022-11-15T04:01:41;2.77;;;0.40;;
24147;SDS011;12309;51.450;-2.624;2022-11-15T04:04:06;4.03;;;0.77;;
24147;SDS011;12309;51.450;-2.624;2022-11-15T04:06:32;1.20;;;0.50;;
24147;SDS011;12309;51.450;-2.624;2022-11-15T04:08:57;2.83;;;0.57;;
24147;SDS011;12309;51.450;-2.624;2022-11-15T04:11:23;1.23;;;0.20;;
24147;SDS011;12309;51.450;-2.624;2022-11-15T04:13:48;1.10;;;0.30;;
24147;SDS011;12309;51.450;-2.624;2022-11-15T04:16:14;1.80;;;0.30;;
24147;SDS011;12309;51.450;-2.624;2022-11-15T04:18:40;0.67;;;0.30;;
24147;SDS011;12309;51.450;-2.624;2022-11-15T04:21:07;1.47;;;0.30;;
24147;SDS011;12309;51.450;-2.624;2022-11-15T04:23:51;2.20;;;0.30;;
24147;SDS011;12309;51.450;-2.624;2022-11-15T04:26:32;1.90;;;0.50;;
24147;SDS011;12309;51.450;-2.624;2022-11-15T04:28:58;1.80;;;0.20;;
24147;SDS011;12309;51.450;-2.624;2022-11-15T04:31:42;2.27;;;0.67;;
24147;SDS011;12309;51.450;-2.624;2022-11-15T04:34:08;1.53;;;0.20;;
24147;SDS011;12309;51.450;-2.624;2022-11-15T04:36:33;0.57;;;0.10;;
24147;SDS011;12309;51.450;-2.624;2022-11-15T04:39:17;0.47;;;0.20;;
24147;SDS011;12309;51.450;-2.624;2022-11-15T04:41:43;0.73;;;0.10;;
24147;SDS011;12309;51.450;-2.624;2022-11-15T04:44:09;0.90;;;0.13;;
24147;SDS011;12309;51.450;-2.624;2022-11-15T04:46:34;1.33;;;0.30;;
24147;SDS011;12309;51.450;-2.624;2022-11-15T04:49:00;1.93;;;0.50;;
24147;SDS011;12309;51.450;-2.624;2022-11-15T04:51:26;1.00;;;0.30;;
24147;SDS011;12309;51.450;-2.624;2022-11-15T04:53:51;1.23;;;0.10;;
24147;SDS011;12309;51.450;-2.624;2022-11-15T04:56:17;0.70;;;0.20;;
24147;SDS011;12309;51.450;-2.624;2022-11-15T04:58:42;0.80;;;0.27;;
24147;SDS011;12309;51.450;-2.624;2022-11-15T05:01:08;0.43;;;0.10;;
24147;SDS011;12309;51.450;-2.624;2022-11-15T05:03:35;1.93;;;0.40;;
24147;SDS011;12309;51.450;-2.624;2022-11-15T05:06:19;2.77;;;0.53;;
24147;SDS011;12309;51.450;-2.624;2022-11-15T05:08:45;3.20;;;0.60;;
24147;SDS011;12309;51.450;-2.624;2022-11-15T05:11:11;3.23;;;0.50;;
24147;SDS011;12309;51.450;-2.624;2022-11-15T05:13:37;1.20;;;0.53;;
24147;SDS011;12309;51.450;-2.624;2022-11-15T05:16:02;1.83;;;0.50;;
24147;SDS011;12309;51.450;-2.624;2022-11-15T05:18:28;4.13;;;0.40;;
24147;SDS011;12309;51.450;-2.624;2022-11-15T05:20:53;4.87;;;0.40;;
24147;SDS011;12309;51.450;-2.624;2022-11-15T05:23:19;1.70;;;0.40;;
24147;SDS011;12309;51.450;-2.624;2022-11-15T05:25:45;2.43;;;0.70;;
24147;SDS011;12309;51.450;-2.624;2022-11-15T05:28:10;1.17;;;0.30;;
24147;SDS011;12309;51.450;-2.624;2022-11-15T05:30:36;4.20;;;0.67;;
24147;SDS011;12309;51.450;-2.624;2022-11-15T05:33:02;3.30;;;0.47;;
24147;SDS011;12309;51.450;-2.624;2022-11-15T05:35:38;1.80;;;0.60;;
24147;SDS011;12309;51.450;-2.624;2022-11-15T05:38:07;1.93;;;0.43;;
24147;SDS011;12309;51.450;-2.624;2022-11-15T05:40:33;2.50;;;0.77;;
24147;SDS011;12309;51.450;-2.624;2022-11-15T05:42:59;8.60;;;0.87;;
24147;SDS011;12309;51.450;-2.624;2022-11-15T05:45:27;2.50;;;0.50;;
24147;SDS011;12309;51.450;-2.624;2022-11-15T05:47:54;9.67;;;0.63;;
24147;SDS011;12309;51.450;-2.624;2022-11-15T05:50:21;6.40;;;0.83;;
24147;SDS011;12309;51.450;-2.624;2022-11-15T05:52:47;2.27;;;0.53;;
24147;SDS011;12309;51.450;-2.624;2022-11-15T05:55:13;4.23;;;0.47;;
24147;SDS011;12309;51.450;-2.624;2022-11-15T05:57:39;5.50;;;0.60;;
24147;SDS011;12309;51.450;-2.624;2022-11-15T06:00:05;4.83;;;1.00;;
24147;SDS011;12309;51.450;-2.624;2022-11-15T06:02:33;2.70;;;0.50;;
24147;SDS011;12309;51.450;-2.624;2022-11-15T06:04:58;1.40;;;0.50;;
24147;SDS011;12309;51.450;-2.624;2022-11-15T06:07:24;3.90;;;0.67;;
24147;SDS011;12309;51.450;-2.624;2022-11-15T06:09:49;2.00;;;0.70;;
24147;SDS011;12309;51.450;-2.624;2022-11-15T06:12:15;5.70;;;0.60;;
24147;SDS011;12309;51.450;-2.624;2022-11-15T06:14:41;1.40;;;0.50;;
24147;SDS011;12309;51.450;-2.624;2022-11-15T06:17:06;5.57;;;0.90;;
24147;SDS011;12309;51.450;-2.624;2022-11-15T06:19:32;5.63;;;1.00;;
24147;SDS011;12309;51.450;-2.624;2022-11-15T06:22:01;5.30;;;0.83;;
24147;SDS011;12309;51.450;-2.624;2022-11-15T06:24:27;4.53;;;0.80;;
24147;SDS011;12309;51.450;-2.624;2022-11-15T06:26:52;4.50;;;0.80;;
24147;SDS011;12309;51.450;-2.624;2022-11-15T06:29:18;6.27;;;0.63;;
24147;SDS011;12309;51.450;-2.624;2022-11-15T06:31:44;6.07;;;1.07;;
24147;SDS011;12309;51.450;-2.624;2022-11-15T06:34:09;5.00;;;0.83;;
24147;SDS011;12309;51.450;-2.624;2022-11-15T06:36:35;6.20;;;0.93;;
24147;SDS011;12309;51.450;-2.624;2022-11-15T06:39:02;2.67;;;0.70;;
24147;SDS011;12309;51.450;-2.624;2022-11-15T06:41:28;5.93;;;0.80;;
24147;SDS011;12309;51.450;-2.624;2022-11-15T06:43:54;1.80;;;0.57;;
24147;SDS011;12309;51.450;-2.624;2022-11-15T06:46:20;7.97;;;1.03;;
24147;SDS011;12309;51.450;-2.624;2022-11-15T06:48:45;3.33;;;0.60;;
24147;SDS011;12309;51.450;-2.624;2022-11-15T06:51:11;6.53;;;0.80;;
24147;SDS011;12309;51.450;-2.624;2022-11-15T06:53:37;2.77;;;0.63;;
24147;SDS011;12309;51.450;-2.624;2022-11-15T06:56:04;5.23;;;0.70;;
24147;SDS011;12309;51.450;-2.624;2022-11-15T06:58:30;3.53;;;0.53;;
24147;SDS011;12309;51.450;-2.624;2022-11-15T07:01:00;4.80;;;0.80;;
24147;SDS011;12309;51.450;-2.624;2022-11-15T07:03:27;3.83;;;0.80;;
24147;SDS011;12309;51.450;-2.624;2022-11-15T07:05:53;5.57;;;0.87;;
24147;SDS011;12309;51.450;-2.624;2022-11-15T07:08:21;6.67;;;1.37;;
24147;SDS011;12309;51.450;-2.624;2022-11-15T07:10:48;6.63;;;1.07;;
24147;SDS011;12309;51.450;-2.624;2022-11-15T07:13:13;5.23;;;0.70;;
24147;SDS011;12309;51.450;-2.624;2022-11-15T07:15:39;7.93;;;0.93;;
24147;SDS011;12309;51.450;-2.624;2022-11-15T07:18:05;8.93;;;1.70;;
24147;SDS011;12309;51.450;-2.624;2022-11-15T07:20:30;5.27;;;0.80;;
24147;SDS011;12309;51.450;-2.624;2022-11-15T07:23:00;2.63;;;0.70;;
24147;SDS011;12309;51.450;-2.624;2022-11-15T07:25:27;4.37;;;1.13;;
24147;SDS011;12309;51.450;-2.624;2022-11-15T07:27:56;9.93;;;0.93;;
24147;SDS011;12309;51.450;-2.624;2022-11-15T07:30:22;2.70;;;0.93;;
24147;SDS011;12309;51.450;-2.624;2022-11-15T07:32:55;6.30;;;0.60;;
24147;SDS011;12309;51.450;-2.624;2022-11-15T07:35:22;40.13;;;2.20;;
24147;SDS011;12309;51.450;-2.624;2022-11-15T07:37:55;2.63;;;0.77;;
24147;SDS011;12309;51.450;-2.624;2022-11-15T07:40:22;5.37;;;0.60;;
24147;SDS011;12309;51.450;-2.624;2022-11-15T07:42:48;3.67;;;0.60;;
24147;SDS011;12309;51.450;-2.624;2022-11-15T07:45:21;4.80;;;0.70;;
24147;SDS011;12309;51.450;-2.624;2022-11-15T07:47:48;5.23;;;0.40;;
24147;SDS011;12309;51.450;-2.624;2022-11-15T07:50:15;5.73;;;0.67;;
24147;SDS011;12309;51.450;-2.624;2022-11-15T07:52:44;4.97;;;0.90;;
24147;SDS011;12309;51.450;-2.624;2022-11-15T07:55:10;3.13;;;0.47;;
24147;SDS011;12309;51.450;-2.624;2022-11-15T07:57:36;5.57;;;0.53;;
24147;SDS011;12309;51.450;-2.624;2022-11-15T08:00:02;2.40;;;0.50;;
24147;SDS011;12309;51.450;-2.624;2022-11-15T08:02:31;3.43;;;0.80;;
24147;SDS011;12309;51.450;-2.624;2022-11-15T08:04:57;2.33;;;0.37;;
24147;SDS011;12309;51.450;-2.624;2022-11-15T08:07:22;3.73;;;0.63;;
24147;SDS011;12309;51.450;-2.624;2022-11-15T08:09:48;2.00;;;0.60;;
24147;SDS011;12309;51.450;-2.624;2022-11-15T08:12:14;1.23;;;0.60;;
24147;SDS011;12309;51.450;-2.624;2022-11-15T08:14:39;3.63;;;0.50;;
24147;SDS011;12309;51.450;-2.624;2022-11-15T08:17:05;2.83;;;0.57;;
24147;SDS011;12309;51.450;-2.624;2022-11-15T08:19:31;4.93;;;0.70;;
24147;SDS011;12309;51.450;-2.624;2022-11-15T08:21:56;2.13;;;0.60;;
24147;SDS011;12309;51.450;-2.624;2022-11-15T08:24:22;4.50;;;0.90;;
24147;SDS011;12309;51.450;-2.624;2022-11-15T08:26:47;2.03;;;0.63;;
24147;SDS011;12309;51.450;-2.624;2022-11-15T08:29:13;1.57;;;0.43;;
24147;SDS011;12309;51.450;-2.624;2022-11-15T08:31:39;1.50;;;0.50;;
24147;SDS011;12309;51.450;-2.624;2022-11-15T08:34:05;1.37;;;0.43;;
24147;SDS011;12309;51.450;-2.624;2022-11-15T08:36:31;3.50;;;0.50;;
24147;SDS011;12309;51.450;-2.624;2022-11-15T08:38:56;3.80;;;0.30;;
24147;SDS011;12309;51.450;-2.624;2022-11-15T08:41:30;4.87;;;0.57;;
24147;SDS011;12309;51.450;-2.624;2022-11-15T08:43:57;2.20;;;0.67;;
24147;SDS011;12309;51.450;-2.624;2022-11-15T08:46:23;3.63;;;0.50;;
24147;SDS011;12309;51.450;-2.624;2022-11-15T08:48:48;1.60;;;0.30;;
24147;SDS011;12309;51.450;-2.624;2022-11-15T08:51:14;2.63;;;0.50;;
24147;SDS011;12309;51.450;-2.624;2022-11-15T08:53:40;2.90;;;0.37;;
24147;SDS011;12309;51.450;-2.624;2022-11-15T08:56:10;2.13;;;0.50;;
24147;SDS011;12309;51.450;-2.624;2022-11-15T08:58:36;1.93;;;0.50;;
24147;SDS011;12309;51.450;-2.624;2022-11-15T09:01:03;3.07;;;0.70;;
24147;SDS011;12309;51.450;-2.624;2022-11-15T09:03:30;0.90;;;0.30;;
24147;SDS011;12309;51.450;-2.624;2022-11-15T09:05:59;2.77;;;0.50;;
24147;SDS011;12309;51.450;-2.624;2022-11-15T09:08:26;3.47;;;0.40;;
24147;SDS011;12309;51.450;-2.624;2022-11-15T09:10:55;0.90;;;0.40;;
24147;SDS011;12309;51.450;-2.624;2022-11-15T09:13:21;1.60;;;0.47;;
24147;SDS011;12309;51.450;-2.624;2022-11-15T09:15:47;1.47;;;0.37;;
24147;SDS011;12309;51.450;-2.624;2022-11-15T09:18:13;2.73;;;0.50;;
24147;SDS011;12309;51.450;-2.624;2022-11-15T09:20:38;5.57;;;0.70;;
24147;SDS011;12309;51.450;-2.624;2022-11-15T09:23:04;3.23;;;0.70;;
24147;SDS011;12309;51.450;-2.624;2022-11-15T09:25:30;3.90;;;0.83;;
24147;SDS011;12309;51.450;-2.624;2022-11-15T09:27:57;3.07;;;0.80;;
24147;SDS011;12309;51.450;-2.624;2022-11-15T09:30:23;2.03;;;0.63;;
24147;SDS011;12309;51.450;-2.624;2022-11-15T09:32:49;3.40;;;0.50;;
24147;SDS011;12309;51.450;-2.624;2022-11-15T09:35:15;5.73;;;0.90;;
24147;SDS011;12309;51.450;-2.624;2022-11-15T09:37:41;7.63;;;0.90;;
24147;SDS011;12309;51.450;-2.624;2022-11-15T09:40:11;4.57;;;0.67;;
24147;SDS011;12309;51.450;-2.624;2022-11-15T09:42:51;6.33;;;0.83;;
24147;SDS011;12309;51.450;-2.624;2022-11-15T09:45:26;6.83;;;1.00;;
24147;SDS011;12309;51.450;-2.624;2022-11-15T09:48:13;8.70;;;1.37;;
24147;SDS011;12309;51.450;-2.624;2022-11-15T09:50:49;9.30;;;1.23;;
24147;SDS011;12309;51.450;-2.624;2022-11-15T09:56:11;11.10;;;1.00;;
24147;SDS011;12309;51.450;-2.624;2022-11-15T09:58:46;6.43;;;1.37;;
24147;SDS011;12309;51.450;-2.624;2022-11-15T10:01:39;7.00;;;1.20;;
24147;SDS011;12309;51.450;-2.624;2022-11-15T10:04:29;6.80;;;1.33;;
24147;SDS011;12309;51.450;-2.624;2022-11-15T10:07:02;11.73;;;1.00;;
24147;SDS011;12309;51.450;-2.624;2022-11-15T10:09:52;8.63;;;1.30;;
24147;SDS011;12309;51.450;-2.624;2022-11-15T10:12:22;5.67;;;1.27;;
24147;SDS011;12309;51.450;-2.624;2022-11-15T10:14:49;7.67;;;1.37;;
24147;SDS011;12309;51.450;-2.624;2022-11-15T10:20:30;5.33;;;1.20;;
24147;SDS011;12309;51.450;-2.624;2022-11-15T10:23:10;7.93;;;1.43;;
24147;SDS011;12309;51.450;-2.624;2022-11-15T10:25:38;6.33;;;1.13;;
24147;SDS011;12309;51.450;-2.624;2022-11-15T10:30:47;7.63;;;1.80;;
24147;SDS011;12309;51.450;-2.624;2022-11-15T10:33:19;5.67;;;1.30;;
24147;SDS011;12309;51.450;-2.624;2022-11-15T10:41:13;7.13;;;1.23;;
24147;SDS011;12309;51.450;-2.624;2022-11-15T10:46:31;8.67;;;1.90;;
24147;SDS011;12309;51.450;-2.624;2022-11-15T10:49:10;7.67;;;1.50;;
24147;SDS011;12309;51.450;-2.624;2022-11-15T10:51:49;9.00;;;2.10;;
24147;SDS011;12309;51.450;-2.624;2022-11-15T10:54:21;12.13;;;1.67;;
24147;SDS011;12309;51.450;-2.624;2022-11-15T10:56:54;8.73;;;1.70;;
24147;SDS011;12309;51.450;-2.624;2022-11-15T10:59:27;9.53;;;1.67;;
24147;SDS011;12309;51.450;-2.624;2022-11-15T11:01:55;8.83;;;1.77;;
24147;SDS011;12309;51.450;-2.624;2022-11-15T11:04:21;10.07;;;1.90;;
24147;SDS011;12309;51.450;-2.624;2022-11-15T11:06:58;12.10;;;1.53;;
24147;SDS011;12309;51.450;-2.624;2022-11-15T11:09:32;11.77;;;1.73;;
24147;SDS011;12309;51.450;-2.624;2022-11-15T11:11:58;7.00;;;1.47;;
24147;SDS011;12309;51.450;-2.624;2022-11-15T11:14:25;8.70;;;1.80;;
24147;SDS011;12309;51.450;-2.624;2022-11-15T11:28:10;7.03;;;1.93;;
24147;SDS011;12309;51.450;-2.624;2022-11-15T11:48:59;6.83;;;1.37;;
24147;SDS011;12309;51.450;-2.624;2022-11-15T11:51:34;7.30;;;1.50;;
24147;SDS011;12309;51.450;-2.624;2022-11-15T11:54:12;7.43;;;1.23;;
24147;SDS011;12309;51.450;-2.624;2022-11-15T11:56:47;10.37;;;1.67;;
24147;SDS011;12309;51.450;-2.624;2022-11-15T11:59:23;6.53;;;1.77;;
24147;SDS011;12309;51.450;-2.624;2022-11-15T12:01:56;10.97;;;1.60;;
24147;SDS011;12309;51.450;-2.624;2022-11-15T12:04:35;6.03;;;0.97;;
24147;SDS011;12309;51.450;-2.624;2022-11-15T12:07:12;6.03;;;1.17;;
24147;SDS011;12309;51.450;-2.624;2022-11-15T12:09:58;7.87;;;1.90;;
24147;SDS011;12309;51.450;-2.624;2022-11-15T12:12:41;8.60;;;3.57;;
24147;SDS011;12309;51.450;-2.624;2022-11-15T12:17:41;10.23;;;2.03;;
24147;SDS011;12309;51.450;-2.624;2022-11-15T12:20:15;44.77;;;15.23;;
24147;SDS011;12309;51.450;-2.624;2022-11-15T12:22:54;8.50;;;2.10;;
24147;SDS011;12309;51.450;-2.624;2022-11-15T12:25:33;6.03;;;1.40;;
24147;SDS011;12309;51.450;-2.624;2022-11-15T12:33:43;11.07;;;3.00;;
24147;SDS011;12309;51.450;-2.624;2022-11-15T12:36:11;10.95;;;3.55;;
24147;SDS011;12309;51.450;-2.624;2022-11-15T12:38:56;12.25;;;1.45;;
24147;SDS011;12309;51.450;-2.624;2022-11-15T12:41:37;13.15;;;1.98;;
24147;SDS011;12309;51.450;-2.624;2022-11-15T12:44:11;17.30;;;2.00;;
24147;SDS011;12309;51.450;-2.624;2022-11-15T12:49:11;9.13;;;1.90;;
24147;SDS011;12309;51.450;-2.624;2022-11-15T12:57:50;12.02;;;2.30;;
24147;SDS011;12309;51.450;-2.624;2022-11-15T12:59:54;7.07;;;1.50;;
24147;SDS011;12309;51.450;-2.624;2022-11-15T13:02:29;14.38;;;2.80;;
24147;SDS011;12309;51.450;-2.624;2022-11-15T13:05:19;15.70;;;2.93;;
24147;SDS011;12309;51.450;-2.624;2022-11-15T13:17:48;23.77;;;2.92;;
24147;SDS011;12309;51.450;-2.624;2022-11-15T13:20:20;15.93;;;2.67;;
24147;SDS011;12309;51.450;-2.624;2022-11-15T13:30:35;11.63;;;2.42;;
24147;SDS011;12309;51.450;-2.624;2022-11-15T13:33:09;9.90;;;2.17;;
24147;SDS011;12309;51.450;-2.624;2022-11-15T13:35:39;14.57;;;2.45;;
24147;SDS011;12309;51.450;-2.624;2022-11-15T13:38:06;14.95;;;2.15;;
24147;SDS011;12309;51.450;-2.624;2022-11-15T13:40:42;10.93;;;2.00;;
24147;SDS011;12309;51.450;-2.624;2022-11-15T13:43:17;10.63;;;1.75;;
24147;SDS011;12309;51.450;-2.624;2022-11-15T13:45:45;11.77;;;1.92;;
24147;SDS011;12309;51.450;-2.624;2022-11-15T13:48:56;13.63;;;1.90;;
24147;SDS011;12309;51.450;-2.624;2022-11-15T13:51:40;9.17;;;2.13;;
24147;SDS011;12309;51.450;-2.624;2022-11-15T13:56:47;11.03;;;1.83;;
24147;SDS011;12309;51.450;-2.624;2022-11-15T14:01:56;13.13;;;2.20;;
24147;SDS011;12309;51.450;-2.624;2022-11-15T14:04:25;11.67;;;1.80;;
24147;SDS011;12309;51.450;-2.624;2022-11-15T14:06:55;13.40;;;2.60;;
24147;SDS011;12309;51.450;-2.624;2022-11-15T14:18:05;16.65;;;2.30;;
24147;SDS011;12309;51.450;-2.624;2022-11-15T14:20:32;15.60;;;2.22;;
24147;SDS011;12309;51.450;-2.624;2022-11-15T14:23:04;18.23;;;2.30;;
24147;SDS011;12309;51.450;-2.624;2022-11-15T14:25:56;21.10;;;2.43;;
24147;SDS011;12309;51.450;-2.624;2022-11-15T14:30:49;10.70;;;2.17;;
24147;SDS011;12309;51.450;-2.624;2022-11-15T14:33:21;12.70;;;1.83;;
24147;SDS011;12309;51.450;-2.624;2022-11-15T14:35:49;13.18;;;2.40;;
24147;SDS011;12309;51.450;-2.624;2022-11-15T14:38:16;10.80;;;1.80;;
24147;SDS011;12309;51.450;-2.624;2022-11-15T14:40:42;18.85;;;1.92;;
24147;SDS011;12309;51.450;-2.624;2022-11-15T14:43:08;11.27;;;2.30;;
24147;SDS011;12309;51.450;-2.624;2022-11-15T14:45:38;12.35;;;2.28;;
24147;SDS011;12309;51.450;-2.624;2022-11-15T14:48:04;16.50;;;2.17;;
24147;SDS011;12309;51.450;-2.624;2022-11-15T14:50:30;12.77;;;2.03;;
24147;SDS011;12309;51.450;-2.624;2022-11-15T14:52:58;14.75;;;2.28;;
24147;SDS011;12309;51.450;-2.624;2022-11-15T14:55:24;16.50;;;2.22;;
24147;SDS011;12309;51.450;-2.624;2022-11-15T14:58:04;23.58;;;2.70;;
24147;SDS011;12309;51.450;-2.624;2022-11-15T15:00:32;16.77;;;2.88;;
24147;SDS011;12309;51.450;-2.624;2022-11-15T15:02:59;14.07;;;2.42;;
24147;SDS011;12309;51.450;-2.624;2022-11-15T15:05:30;17.65;;;2.40;;
24147;SDS011;12309;51.450;-2.624;2022-11-15T15:08:04;9.57;;;2.20;;
24147;SDS011;12309;51.450;-2.624;2022-11-15T15:10:37;12.05;;;2.05;;
24147;SDS011;12309;51.450;-2.624;2022-11-15T15:13:04;13.75;;;2.03;;
24147;SDS011;12309;51.450;-2.624;2022-11-15T15:15:37;17.75;;;2.55;;
24147;SDS011;12309;51.450;-2.624;2022-11-15T15:18:03;15.80;;;1.90;;
24147;SDS011;12309;51.450;-2.624;2022-11-15T15:20:30;10.83;;;2.20;;
24147;SDS011;12309;51.450;-2.624;2022-11-15T15:22:57;19.98;;;2.00;;
24147;SDS011;12309;51.450;-2.624;2022-11-15T15:25:23;13.30;;;1.92;;
24147;SDS011;12309;51.450;-2.624;2022-11-15T15:27:53;15.37;;;3.17;;
24147;SDS011;12309;51.450;-2.624;2022-11-15T15:30:20;11.15;;;2.40;;
24147;SDS011;12309;51.450;-2.624;2022-11-15T15:32:46;10.83;;;2.00;;
24147;SDS011;12309;51.450;-2.624;2022-11-15T15:35:12;8.50;;;1.47;;
24147;SDS011;12309;51.450;-2.624;2022-11-15T15:37:39;8.77;;;1.70;;
24147;SDS011;12309;51.450;-2.624;2022-11-15T15:40:25;9.17;;;1.10;;
24147;SDS011;12309;51.450;-2.624;2022-11-15T15:42:52;6.67;;;1.23;;
24147;SDS011;12309;51.450;-2.624;2022-11-15T15:45:19;9.17;;;1.10;;
24147;SDS011;12309;51.450;-2.624;2022-11-15T15:47:44;6.37;;;1.17;;
24147;SDS011;12309;51.450;-2.624;2022-11-15T15:52:41;6.97;;;1.00;;
24147;SDS011;12309;51.450;-2.624;2022-11-15T15:55:07;6.00;;;1.30;;
24147;SDS011;12309;51.450;-2.624;2022-11-15T15:57:33;7.37;;;1.90;;
24147;SDS011;12309;51.450;-2.624;2022-11-15T15:59:59;5.97;;;2.60;;
24147;SDS011;12309;51.450;-2.624;2022-11-15T16:02:24;10.20;;;2.67;;
24147;SDS011;12309;51.450;-2.624;2022-11-15T16:04:50;6.57;;;1.20;;
24147;SDS011;12309;51.450;-2.624;2022-11-15T16:07:17;8.23;;;1.03;;
24147;SDS011;12309;51.450;-2.624;2022-11-15T16:09:46;7.30;;;1.30;;
24147;SDS011;12309;51.450;-2.624;2022-11-15T16:12:31;8.30;;;2.10;;
24147;SDS011;12309;51.450;-2.624;2022-11-15T16:15:00;6.87;;;1.40;;
24147;SDS011;12309;51.450;-2.624;2022-11-15T16:17:28;10.07;;;2.63;;
24147;SDS011;12309;51.450;-2.624;2022-11-15T16:19:58;8.57;;;1.90;;
24147;SDS011;12309;51.450;-2.624;2022-11-15T16:22:24;14.83;;;2.23;;
24147;SDS011;12309;51.450;-2.624;2022-11-15T16:24:49;8.77;;;1.90;;
24147;SDS011;12309;51.450;-2.624;2022-11-15T16:27:18;10.77;;;1.93;;
24147;SDS011;12309;51.450;-2.624;2022-11-15T16:29:46;7.17;;;2.00;;
24147;SDS011;12309;51.450;-2.624;2022-11-15T16:32:12;11.40;;;2.13;;
24147;SDS011;12309;51.450;-2.624;2022-11-15T16:34:38;11.87;;;1.80;;
24147;SDS011;12309;51.450;-2.624;2022-11-15T16:37:05;11.17;;;1.97;;
24147;SDS011;12309;51.450;-2.624;2022-11-15T16:39:31;10.33;;;1.90;;
24147;SDS011;12309;51.450;-2.624;2022-11-15T16:41:59;6.13;;;1.90;;
24147;SDS011;12309;51.450;-2.624;2022-11-15T16:44:27;11.33;;;1.73;;
24147;SDS011;12309;51.450;-2.624;2022-11-15T16:46:53;13.00;;;1.67;;